sensor_id;sensor_type;location;lat;lon;timestamp;P1;durP1;ratioP1;P2;durP2;ratioP2
19879;SDS011;10102;50.828;4.416;2023-05-10T00:01:47;12.32;;;6.50;;
19879;SDS011;10102;50.828;4.416;2023-05-10T00:04:13;17.48;;;7.60;;
19879;SDS011;10102;50.828;4.416;2023-05-10T00:06:39;20.77;;;8.27;;
19879;SDS011;10102;50.828;4.416;2023-05-10T00:09:05;14.98;;;7.63;;
19879;SDS011;10102;50.828;4.416;2023-05-10T00:11:31;14.27;;;7.00;;
19879;SDS011;10102;50.828;4.416;2023-05-10T00:13:56;13.13;;;6.53;;
19879;SDS011;10102;50.828;4.416;2023-05-10T00:16:22;15.77;;;7.38;;
19879;SDS011;10102;50.828;4.416;2023-05-10T00:18:48;15.18;;;8.45;;
19879;SDS011;10102;50.828;4.416;2023-05-10T00:21:14;16.58;;;7.50;;
19879;SDS011;10102;50.828;4.416;2023-05-10T00:23:40;17.33;;;7.65;;
19879;SDS011;10102;50.828;4.416;2023-05-10T00:26:06;16.70;;;7.53;;
19879;SDS011;10102;50.828;4.416;2023-05-10T00:28:31;17.20;;;7.47;;
19879;SDS011;10102;50.828;4.416;2023-05-10T00:30:57;14.38;;;6.72;;
19879;SDS011;10102;50.828;4.416;2023-05-10T00:33:23;16.50;;;8.10;;
19879;SDS011;10102;50.828;4.416;2023-05-10T00:35:48;19.20;;;8.10;;
19879;SDS011;10102;50.828;4.416;2023-05-10T00:38:14;20.42;;;8.13;;
19879;SDS011;10102;50.828;4.416;2023-05-10T00:40:40;22.15;;;8.85;;
19879;SDS011;10102;50.828;4.416;2023-05-10T00:43:06;18.40;;;7.85;;
19879;SDS011;10102;50.828;4.416;2023-05-10T00:45:34;15.63;;;8.05;;
19879;SDS011;10102;50.828;4.416;2023-05-10T00:48:02;18.65;;;8.23;;
19879;SDS011;10102;50.828;4.416;2023-05-10T00:50:28;16.92;;;8.80;;
19879;SDS011;10102;50.828;4.416;2023-05-10T00:52:55;13.65;;;7.65;;
19879;SDS011;10102;50.828;4.416;2023-05-10T00:55:23;11.52;;;8.07;;
19879;SDS011;10102;50.828;4.416;2023-05-10T00:57:49;18.80;;;8.95;;
19879;SDS011;10102;50.828;4.416;2023-05-10T01:00:14;13.20;;;7.90;;
19879;SDS011;10102;50.828;4.416;2023-05-10T01:02:46;16.75;;;8.57;;
19879;SDS011;10102;50.828;4.416;2023-05-10T01:05:12;19.33;;;9.30;;
19879;SDS011;10102;50.828;4.416;2023-05-10T01:07:39;15.27;;;8.98;;
19879;SDS011;10102;50.828;4.416;2023-05-10T01:10:05;15.25;;;8.60;;
19879;SDS011;10102;50.828;4.416;2023-05-10T01:12:33;16.67;;;9.05;;
19879;SDS011;10102;50.828;4.416;2023-05-10T01:15:01;14.93;;;8.70;;
19879;SDS011;10102;50.828;4.416;2023-05-10T01:17:28;16.02;;;9.30;;
19879;SDS011;10102;50.828;4.416;2023-05-10T01:19:54;15.13;;;9.02;;
19879;SDS011;10102;50.828;4.416;2023-05-10T01:23:08;16.77;;;9.07;;
19879;SDS011;10102;50.828;4.416;2023-05-10T01:25:31;20.60;;;9.85;;
19879;SDS011;10102;50.828;4.416;2023-05-10T01:28:30;20.00;;;9.68;;
19879;SDS011;10102;50.828;4.416;2023-05-10T01:31:39;17.92;;;10.23;;
19879;SDS011;10102;50.828;4.416;2023-05-10T01:34:17;17.10;;;9.35;;
19879;SDS011;10102;50.828;4.416;2023-05-10T01:36:51;21.95;;;9.90;;
19879;SDS011;10102;50.828;4.416;2023-05-10T01:39:22;18.73;;;10.48;;
19879;SDS011;10102;50.828;4.416;2023-05-10T01:47:17;20.30;;;10.52;;
19879;SDS011;10102;50.828;4.416;2023-05-10T01:49:52;21.85;;;10.18;;
19879;SDS011;10102;50.828;4.416;2023-05-10T01:52:22;21.75;;;10.10;;
19879;SDS011;10102;50.828;4.416;2023-05-10T01:54:55;19.33;;;10.45;;
19879;SDS011;10102;50.828;4.416;2023-05-10T01:57:26;19.05;;;10.15;;
19879;SDS011;10102;50.828;4.416;2023-05-10T01:59:55;17.25;;;10.23;;
19879;SDS011;10102;50.828;4.416;2023-05-10T02:02:23;19.27;;;10.63;;
19879;SDS011;10102;50.828;4.416;2023-05-10T02:04:51;18.52;;;11.02;;
19879;SDS011;10102;50.828;4.416;2023-05-10T02:07:20;19.27;;;10.50;;
19879;SDS011;10102;50.828;4.416;2023-05-10T02:09:48;19.75;;;10.43;;
19879;SDS011;10102;50.828;4.416;2023-05-10T02:12:14;18.52;;;10.38;;
19879;SDS011;10102;50.828;4.416;2023-05-10T02:14:41;24.38;;;11.27;;
19879;SDS011;10102;50.828;4.416;2023-05-10T02:17:08;21.77;;;11.25;;
19879;SDS011;10102;50.828;4.416;2023-05-10T02:19:34;16.48;;;10.30;;
19879;SDS011;10102;50.828;4.416;2023-05-10T02:22:03;22.10;;;10.85;;
19879;SDS011;10102;50.828;4.416;2023-05-10T02:24:30;17.00;;;10.60;;
19879;SDS011;10102;50.828;4.416;2023-05-10T02:26:56;21.85;;;10.90;;
19879;SDS011;10102;50.828;4.416;2023-05-10T02:29:24;16.05;;;9.85;;
19879;SDS011;10102;50.828;4.416;2023-05-10T02:31:52;18.85;;;10.30;;
19879;SDS011;10102;50.828;4.416;2023-05-10T02:34:21;20.23;;;10.32;;
19879;SDS011;10102;50.828;4.416;2023-05-10T02:36:48;18.10;;;9.88;;
19879;SDS011;10102;50.828;4.416;2023-05-10T02:39:15;18.65;;;9.82;;
19879;SDS011;10102;50.828;4.416;2023-05-10T02:41:43;18.90;;;9.32;;
19879;SDS011;10102;50.828;4.416;2023-05-10T02:44:11;17.02;;;9.43;;
19879;SDS011;10102;50.828;4.416;2023-05-10T02:46:40;20.20;;;10.18;;
19879;SDS011;10102;50.828;4.416;2023-05-10T02:49:06;19.63;;;9.68;;
19879;SDS011;10102;50.828;4.416;2023-05-10T02:51:34;16.70;;;8.93;;
19879;SDS011;10102;50.828;4.416;2023-05-10T02:54:04;17.20;;;8.88;;
19879;SDS011;10102;50.828;4.416;2023-05-10T02:56:35;15.88;;;9.23;;
19879;SDS011;10102;50.828;4.416;2023-05-10T02:59:05;14.60;;;8.77;;
19879;SDS011;10102;50.828;4.416;2023-05-10T03:01:31;12.90;;;8.55;;
19879;SDS011;10102;50.828;4.416;2023-05-10T03:03:57;14.60;;;9.43;;
19879;SDS011;10102;50.828;4.416;2023-05-10T03:06:22;19.58;;;9.00;;
19879;SDS011;10102;50.828;4.416;2023-05-10T03:08:48;17.63;;;9.40;;
19879;SDS011;10102;50.828;4.416;2023-05-10T03:19:35;18.23;;;9.27;;
19879;SDS011;10102;50.828;4.416;2023-05-10T03:22:10;20.13;;;9.65;;
19879;SDS011;10102;50.828;4.416;2023-05-10T03:24:38;47.58;;;10.48;;
19879;SDS011;10102;50.828;4.416;2023-05-10T03:27:05;30.83;;;10.15;;
19879;SDS011;10102;50.828;4.416;2023-05-10T03:29:32;20.05;;;10.15;;
19879;SDS011;10102;50.828;4.416;2023-05-10T03:31:58;18.00;;;10.30;;
19879;SDS011;10102;50.828;4.416;2023-05-10T03:34:25;22.02;;;11.00;;
19879;SDS011;10102;50.828;4.416;2023-05-10T03:36:50;22.35;;;11.98;;
19879;SDS011;10102;50.828;4.416;2023-05-10T03:39:17;27.25;;;13.60;;
19879;SDS011;10102;50.828;4.416;2023-05-10T03:41:43;24.42;;;12.38;;
19879;SDS011;10102;50.828;4.416;2023-05-10T03:44:08;34.53;;;13.40;;
19879;SDS011;10102;50.828;4.416;2023-05-10T03:46:34;27.13;;;13.02;;
19879;SDS011;10102;50.828;4.416;2023-05-10T03:49:00;30.73;;;13.80;;
19879;SDS011;10102;50.828;4.416;2023-05-10T03:51:25;31.67;;;14.30;;
19879;SDS011;10102;50.828;4.416;2023-05-10T03:53:53;38.65;;;15.27;;
19879;SDS011;10102;50.828;4.416;2023-05-10T03:56:19;34.88;;;14.88;;
19879;SDS011;10102;50.828;4.416;2023-05-10T03:58:45;30.63;;;14.48;;
19879;SDS011;10102;50.828;4.416;2023-05-10T04:01:11;44.55;;;15.63;;
19879;SDS011;10102;50.828;4.416;2023-05-10T04:03:37;40.83;;;16.20;;
19879;SDS011;10102;50.828;4.416;2023-05-10T04:06:03;43.65;;;16.35;;
19879;SDS011;10102;50.828;4.416;2023-05-10T04:08:29;39.92;;;16.50;;
19879;SDS011;10102;50.828;4.416;2023-05-10T04:11:04;44.80;;;17.00;;
19879;SDS011;10102;50.828;4.416;2023-05-10T04:13:33;36.58;;;16.63;;
19879;SDS011;10102;50.828;4.416;2023-05-10T04:15:59;43.13;;;17.35;;
19879;SDS011;10102;50.828;4.416;2023-05-10T04:18:25;41.47;;;17.75;;
19879;SDS011;10102;50.828;4.416;2023-05-10T04:20:51;50.25;;;19.42;;
19879;SDS011;10102;50.828;4.416;2023-05-10T04:23:17;47.25;;;18.08;;
19879;SDS011;10102;50.828;4.416;2023-05-10T04:25:42;49.60;;;18.40;;
19879;SDS011;10102;50.828;4.416;2023-05-10T04:28:08;60.60;;;19.15;;
19879;SDS011;10102;50.828;4.416;2023-05-10T04:30:35;53.47;;;18.75;;
19879;SDS011;10102;50.828;4.416;2023-05-10T04:33:01;59.05;;;18.25;;
19879;SDS011;10102;50.828;4.416;2023-05-10T04:35:27;53.72;;;18.75;;
19879;SDS011;10102;50.828;4.416;2023-05-10T04:37:53;56.63;;;19.40;;
19879;SDS011;10102;50.828;4.416;2023-05-10T04:40:19;53.97;;;18.35;;
19879;SDS011;10102;50.828;4.416;2023-05-10T04:42:45;53.65;;;19.02;;
19879;SDS011;10102;50.828;4.416;2023-05-10T04:45:11;51.63;;;19.45;;
19879;SDS011;10102;50.828;4.416;2023-05-10T04:47:39;51.35;;;20.17;;
19879;SDS011;10102;50.828;4.416;2023-05-10T04:50:05;58.00;;;19.73;;
19879;SDS011;10102;50.828;4.416;2023-05-10T04:52:31;56.97;;;19.15;;
19879;SDS011;10102;50.828;4.416;2023-05-10T04:54:57;61.10;;;20.45;;
19879;SDS011;10102;50.828;4.416;2023-05-10T04:57:23;59.63;;;20.48;;
19879;SDS011;10102;50.828;4.416;2023-05-10T04:59:48;55.50;;;21.75;;
19879;SDS011;10102;50.828;4.416;2023-05-10T05:02:14;57.67;;;20.55;;
19879;SDS011;10102;50.828;4.416;2023-05-10T05:04:40;56.63;;;21.48;;
19879;SDS011;10102;50.828;4.416;2023-05-10T05:07:06;53.80;;;20.10;;
19879;SDS011;10102;50.828;4.416;2023-05-10T05:09:31;62.28;;;20.77;;
19879;SDS011;10102;50.828;4.416;2023-05-10T05:11:57;59.50;;;20.67;;
19879;SDS011;10102;50.828;4.416;2023-05-10T05:14:23;55.85;;;20.70;;
19879;SDS011;10102;50.828;4.416;2023-05-10T05:16:50;47.20;;;19.50;;
19879;SDS011;10102;50.828;4.416;2023-05-10T05:19:17;48.80;;;19.77;;
19879;SDS011;10102;50.828;4.416;2023-05-10T05:21:42;52.13;;;20.13;;
19879;SDS011;10102;50.828;4.416;2023-05-10T05:24:08;55.70;;;20.30;;
19879;SDS011;10102;50.828;4.416;2023-05-10T05:26:35;29.02;;;13.75;;
19879;SDS011;10102;50.828;4.416;2023-05-10T05:29:01;26.83;;;12.32;;
19879;SDS011;10102;50.828;4.416;2023-05-10T05:31:27;20.92;;;11.60;;
19879;SDS011;10102;50.828;4.416;2023-05-10T05:33:53;28.05;;;11.88;;
19879;SDS011;10102;50.828;4.416;2023-05-10T05:36:19;21.20;;;11.65;;
19879;SDS011;10102;50.828;4.416;2023-05-10T05:38:45;28.95;;;11.98;;
19879;SDS011;10102;50.828;4.416;2023-05-10T05:41:10;27.48;;;12.00;;
19879;SDS011;10102;50.828;4.416;2023-05-10T05:43:36;24.23;;;11.13;;
19879;SDS011;10102;50.828;4.416;2023-05-10T05:46:02;29.00;;;11.93;;
19879;SDS011;10102;50.828;4.416;2023-05-10T05:48:29;25.67;;;13.18;;
19879;SDS011;10102;50.828;4.416;2023-05-10T05:50:55;29.33;;;12.38;;
19879;SDS011;10102;50.828;4.416;2023-05-10T05:53:24;34.53;;;12.82;;
19879;SDS011;10102;50.828;4.416;2023-05-10T05:55:53;31.23;;;12.82;;
19879;SDS011;10102;50.828;4.416;2023-05-10T05:58:20;29.77;;;12.23;;
19879;SDS011;10102;50.828;4.416;2023-05-10T06:00:46;29.50;;;12.27;;
19879;SDS011;10102;50.828;4.416;2023-05-10T06:03:12;30.17;;;11.63;;
19879;SDS011;10102;50.828;4.416;2023-05-10T06:05:37;22.50;;;11.90;;
19879;SDS011;10102;50.828;4.416;2023-05-10T06:08:03;24.58;;;11.32;;
19879;SDS011;10102;50.828;4.416;2023-05-10T06:10:29;22.38;;;10.68;;
19879;SDS011;10102;50.828;4.416;2023-05-10T06:12:55;23.17;;;8.55;;
19879;SDS011;10102;50.828;4.416;2023-05-10T06:15:21;25.58;;;8.90;;
19879;SDS011;10102;50.828;4.416;2023-05-10T06:17:47;19.92;;;9.13;;
19879;SDS011;10102;50.828;4.416;2023-05-10T06:20:14;24.95;;;8.15;;
19879;SDS011;10102;50.828;4.416;2023-05-10T06:22:40;15.85;;;8.73;;
19879;SDS011;10102;50.828;4.416;2023-05-10T06:25:06;21.95;;;9.02;;
19879;SDS011;10102;50.828;4.416;2023-05-10T06:27:32;16.92;;;7.60;;
19879;SDS011;10102;50.828;4.416;2023-05-10T06:29:57;21.10;;;8.15;;
19879;SDS011;10102;50.828;4.416;2023-05-10T06:32:23;17.67;;;7.28;;
19879;SDS011;10102;50.828;4.416;2023-05-10T06:34:49;14.18;;;7.18;;
19879;SDS011;10102;50.828;4.416;2023-05-10T06:37:14;15.98;;;6.38;;
19879;SDS011;10102;50.828;4.416;2023-05-10T06:39:40;13.10;;;6.85;;
19879;SDS011;10102;50.828;4.416;2023-05-10T06:42:06;11.45;;;6.10;;
19879;SDS011;10102;50.828;4.416;2023-05-10T06:44:31;10.57;;;6.05;;
19879;SDS011;10102;50.828;4.416;2023-05-10T06:46:57;9.05;;;5.18;;
19879;SDS011;10102;50.828;4.416;2023-05-10T06:49:23;13.88;;;5.03;;
19879;SDS011;10102;50.828;4.416;2023-05-10T06:51:48;11.75;;;4.85;;
19879;SDS011;10102;50.828;4.416;2023-05-10T06:54:14;8.73;;;4.28;;
19879;SDS011;10102;50.828;4.416;2023-05-10T06:56:40;5.35;;;4.15;;
19879;SDS011;10102;50.828;4.416;2023-05-10T06:59:06;10.90;;;4.75;;
19879;SDS011;10102;50.828;4.416;2023-05-10T07:01:32;7.43;;;4.65;;
19879;SDS011;10102;50.828;4.416;2023-05-10T07:03:57;10.50;;;4.43;;
19879;SDS011;10102;50.828;4.416;2023-05-10T07:06:23;8.63;;;5.10;;
19879;SDS011;10102;50.828;4.416;2023-05-10T07:08:49;11.07;;;5.82;;
19879;SDS011;10102;50.828;4.416;2023-05-10T07:11:14;12.40;;;5.47;;
19879;SDS011;10102;50.828;4.416;2023-05-10T07:13:40;13.60;;;5.57;;
19879;SDS011;10102;50.828;4.416;2023-05-10T07:16:09;12.23;;;5.75;;
19879;SDS011;10102;50.828;4.416;2023-05-10T07:18:35;12.73;;;5.75;;
19879;SDS011;10102;50.828;4.416;2023-05-10T07:21:01;13.90;;;6.90;;
19879;SDS011;10102;50.828;4.416;2023-05-10T07:23:27;11.88;;;6.70;;
19879;SDS011;10102;50.828;4.416;2023-05-10T07:25:54;9.35;;;6.70;;
19879;SDS011;10102;50.828;4.416;2023-05-10T07:28:22;13.27;;;7.50;;
19879;SDS011;10102;50.828;4.416;2023-05-10T07:30:49;11.13;;;6.65;;
19879;SDS011;10102;50.828;4.416;2023-05-10T07:33:15;16.02;;;7.50;;
19879;SDS011;10102;50.828;4.416;2023-05-10T07:35:41;14.48;;;7.32;;
19879;SDS011;10102;50.828;4.416;2023-05-10T07:38:07;12.45;;;7.13;;
19879;SDS011;10102;50.828;4.416;2023-05-10T07:40:33;12.02;;;7.10;;
19879;SDS011;10102;50.828;4.416;2023-05-10T07:42:58;14.43;;;7.13;;
19879;SDS011;10102;50.828;4.416;2023-05-10T07:45:26;16.13;;;7.30;;
19879;SDS011;10102;50.828;4.416;2023-05-10T07:47:52;17.75;;;7.50;;
19879;SDS011;10102;50.828;4.416;2023-05-10T07:50:18;16.45;;;7.43;;
19879;SDS011;10102;50.828;4.416;2023-05-10T07:52:43;19.15;;;8.50;;
19879;SDS011;10102;50.828;4.416;2023-05-10T07:55:09;13.65;;;7.22;;
19879;SDS011;10102;50.828;4.416;2023-05-10T07:57:35;13.65;;;7.18;;
19879;SDS011;10102;50.828;4.416;2023-05-10T08:00:01;13.60;;;7.03;;
19879;SDS011;10102;50.828;4.416;2023-05-10T08:02:27;10.65;;;6.90;;
19879;SDS011;10102;50.828;4.416;2023-05-10T08:04:54;16.48;;;7.05;;
19879;SDS011;10102;50.828;4.416;2023-05-10T08:07:20;9.77;;;6.28;;
19879;SDS011;10102;50.828;4.416;2023-05-10T08:09:46;12.75;;;5.72;;
19879;SDS011;10102;50.828;4.416;2023-05-10T08:12:12;15.68;;;6.93;;
19879;SDS011;10102;50.828;4.416;2023-05-10T08:14:38;11.95;;;6.22;;
19879;SDS011;10102;50.828;4.416;2023-05-10T08:17:03;10.60;;;6.20;;
19879;SDS011;10102;50.828;4.416;2023-05-10T08:19:29;11.00;;;6.47;;
19879;SDS011;10102;50.828;4.416;2023-05-10T08:21:54;14.00;;;5.68;;
19879;SDS011;10102;50.828;4.416;2023-05-10T08:24:21;9.73;;;5.60;;
19879;SDS011;10102;50.828;4.416;2023-05-10T08:26:47;10.43;;;5.68;;
19879;SDS011;10102;50.828;4.416;2023-05-10T08:29:13;9.88;;;6.30;;
19879;SDS011;10102;50.828;4.416;2023-05-10T08:31:39;9.18;;;5.50;;
19879;SDS011;10102;50.828;4.416;2023-05-10T08:34:05;11.27;;;5.60;;
19879;SDS011;10102;50.828;4.416;2023-05-10T08:36:31;7.80;;;4.82;;
19879;SDS011;10102;50.828;4.416;2023-05-10T08:38:57;9.82;;;4.68;;
19879;SDS011;10102;50.828;4.416;2023-05-10T08:41:23;7.18;;;4.50;;
19879;SDS011;10102;50.828;4.416;2023-05-10T08:43:51;6.43;;;4.35;;
19879;SDS011;10102;50.828;4.416;2023-05-10T08:46:18;5.60;;;3.85;;
19879;SDS011;10102;50.828;4.416;2023-05-10T08:48:46;7.43;;;4.63;;
19879;SDS011;10102;50.828;4.416;2023-05-10T08:51:14;7.25;;;4.50;;
19879;SDS011;10102;50.828;4.416;2023-05-10T08:53:44;10.60;;;4.85;;
19879;SDS011;10102;50.828;4.416;2023-05-10T08:56:11;9.20;;;4.28;;
19879;SDS011;10102;50.828;4.416;2023-05-10T08:58:37;7.07;;;4.50;;
19879;SDS011;10102;50.828;4.416;2023-05-10T09:01:03;9.48;;;4.60;;
19879;SDS011;10102;50.828;4.416;2023-05-10T09:03:30;7.80;;;4.97;;
19879;SDS011;10102;50.828;4.416;2023-05-10T09:05:56;7.15;;;4.75;;
19879;SDS011;10102;50.828;4.416;2023-05-10T09:08:23;8.88;;;5.38;;
19879;SDS011;10102;50.828;4.416;2023-05-10T09:10:52;11.20;;;4.57;;
19879;SDS011;10102;50.828;4.416;2023-05-10T09:13:22;8.93;;;5.60;;
19879;SDS011;10102;50.828;4.416;2023-05-10T09:15:49;9.73;;;5.90;;
19879;SDS011;10102;50.828;4.416;2023-05-10T09:18:16;17.17;;;6.22;;
19879;SDS011;10102;50.828;4.416;2023-05-10T09:20:41;9.30;;;4.90;;
19879;SDS011;10102;50.828;4.416;2023-05-10T09:23:07;9.85;;;5.47;;
19879;SDS011;10102;50.828;4.416;2023-05-10T09:25:33;11.15;;;5.32;;
19879;SDS011;10102;50.828;4.416;2023-05-10T09:27:59;10.73;;;5.50;;
19879;SDS011;10102;50.828;4.416;2023-05-10T09:30:29;9.93;;;6.03;;
19879;SDS011;10102;50.828;4.416;2023-05-10T09:32:56;8.43;;;5.30;;
19879;SDS011;10102;50.828;4.416;2023-05-10T09:35:26;12.23;;;6.28;;
19879;SDS011;10102;50.828;4.416;2023-05-10T09:37:55;11.05;;;5.60;;
19879;SDS011;10102;50.828;4.416;2023-05-10T09:40:26;8.40;;;4.93;;
19879;SDS011;10102;50.828;4.416;2023-05-10T09:45:22;5.78;;;3.95;;
19879;SDS011;10102;50.828;4.416;2023-05-10T09:47:49;12.38;;;4.63;;
19879;SDS011;10102;50.828;4.416;2023-05-10T09:50:15;6.20;;;4.65;;
19879;SDS011;10102;50.828;4.416;2023-05-10T09:55:20;6.40;;;4.22;;
19879;SDS011;10102;50.828;4.416;2023-05-10T09:57:49;8.90;;;4.40;;
19879;SDS011;10102;50.828;4.416;2023-05-10T10:00:23;10.95;;;4.28;;
19879;SDS011;10102;50.828;4.416;2023-05-10T10:02:58;7.07;;;4.80;;
19879;SDS011;10102;50.828;4.416;2023-05-10T10:05:28;6.07;;;3.97;;
19879;SDS011;10102;50.828;4.416;2023-05-10T10:08:04;7.80;;;4.22;;
19879;SDS011;10102;50.828;4.416;2023-05-10T10:10:31;7.03;;;4.03;;
19879;SDS011;10102;50.828;4.416;2023-05-10T10:12:58;4.10;;;3.70;;
19879;SDS011;10102;50.828;4.416;2023-05-10T10:15:24;5.90;;;3.72;;
19879;SDS011;10102;50.828;4.416;2023-05-10T10:17:50;6.93;;;3.85;;
19879;SDS011;10102;50.828;4.416;2023-05-10T10:20:17;5.00;;;3.70;;
19879;SDS011;10102;50.828;4.416;2023-05-10T10:22:44;4.43;;;3.70;;
19879;SDS011;10102;50.828;4.416;2023-05-10T10:25:11;3.85;;;3.08;;
19879;SDS011;10102;50.828;4.416;2023-05-10T10:33:18;4.72;;;3.35;;
19879;SDS011;10102;50.828;4.416;2023-05-10T10:36:06;5.18;;;2.95;;
19879;SDS011;10102;50.828;4.416;2023-05-10T10:38:35;4.80;;;3.85;;
19879;SDS011;10102;50.828;4.416;2023-05-10T11:05:36;6.57;;;3.80;;
19879;SDS011;10102;50.828;4.416;2023-05-10T11:08:17;7.38;;;3.90;;
19879;SDS011;10102;50.828;4.416;2023-05-10T11:15:56;6.68;;;3.95;;
19879;SDS011;10102;50.828;4.416;2023-05-10T11:18:24;5.63;;;3.83;;
19879;SDS011;10102;50.828;4.416;2023-05-10T11:20:58;6.38;;;3.90;;
19879;SDS011;10102;50.828;4.416;2023-05-10T11:23:31;6.45;;;4.05;;
19879;SDS011;10102;50.828;4.416;2023-05-10T11:26:12;7.03;;;4.32;;
19879;SDS011;10102;50.828;4.416;2023-05-10T11:28:44;6.22;;;3.50;;
19879;SDS011;10102;50.828;4.416;2023-05-10T11:31:15;5.97;;;3.88;;
19879;SDS011;10102;50.828;4.416;2023-05-10T11:33:42;5.07;;;3.72;;
19879;SDS011;10102;50.828;4.416;2023-05-10T11:36:17;4.90;;;3.42;;
19879;SDS011;10102;50.828;4.416;2023-05-10T11:38:44;9.30;;;4.00;;
19879;SDS011;10102;50.828;4.416;2023-05-10T11:41:11;3.75;;;3.17;;
19879;SDS011;10102;50.828;4.416;2023-05-10T11:43:40;3.90;;;3.22;;
19879;SDS011;10102;50.828;4.416;2023-05-10T11:46:10;6.07;;;3.50;;
19879;SDS011;10102;50.828;4.416;2023-05-10T11:48:40;8.25;;;3.50;;
19879;SDS011;10102;50.828;4.416;2023-05-10T11:51:07;3.20;;;2.90;;
19879;SDS011;10102;50.828;4.416;2023-05-10T11:53:32;3.33;;;2.80;;
19879;SDS011;10102;50.828;4.416;2023-05-10T11:56:08;5.75;;;3.80;;
19879;SDS011;10102;50.828;4.416;2023-05-10T11:58:35;5.65;;;3.25;;
19879;SDS011;10102;50.828;4.416;2023-05-10T12:01:02;21.15;;;4.65;;
19879;SDS011;10102;50.828;4.416;2023-05-10T12:03:29;9.75;;;3.65;;
19879;SDS011;10102;50.828;4.416;2023-05-10T12:05:55;4.03;;;3.53;;
19879;SDS011;10102;50.828;4.416;2023-05-10T12:08:23;4.13;;;3.30;;
19879;SDS011;10102;50.828;4.416;2023-05-10T12:10:50;3.60;;;3.20;;
19879;SDS011;10102;50.828;4.416;2023-05-10T12:13:17;4.22;;;3.30;;
19879;SDS011;10102;50.828;4.416;2023-05-10T12:15:45;8.30;;;3.80;;
19879;SDS011;10102;50.828;4.416;2023-05-10T12:18:11;4.88;;;3.40;;
19879;SDS011;10102;50.828;4.416;2023-05-10T12:20:38;5.20;;;3.42;;
19879;SDS011;10102;50.828;4.416;2023-05-10T12:23:04;4.25;;;3.10;;
19879;SDS011;10102;50.828;4.416;2023-05-10T12:25:31;3.92;;;3.28;;
19879;SDS011;10102;50.828;4.416;2023-05-10T12:28:05;4.20;;;3.80;;
19879;SDS011;10102;50.828;4.416;2023-05-10T12:30:33;5.18;;;3.83;;
19879;SDS011;10102;50.828;4.416;2023-05-10T12:33:21;4.82;;;3.50;;
19879;SDS011;10102;50.828;4.416;2023-05-10T12:35:47;5.63;;;3.75;;
19879;SDS011;10102;50.828;4.416;2023-05-10T12:38:29;5.82;;;3.67;;
19879;SDS011;10102;50.828;4.416;2023-05-10T12:40:58;4.50;;;3.30;;
19879;SDS011;10102;50.828;4.416;2023-05-10T12:43:25;4.50;;;3.50;;
19879;SDS011;10102;50.828;4.416;2023-05-10T12:45:50;6.75;;;4.80;;
19879;SDS011;10102;50.828;4.416;2023-05-10T12:48:16;6.70;;;4.45;;
19879;SDS011;10102;50.828;4.416;2023-05-10T12:50:42;5.63;;;4.63;;
19879;SDS011;10102;50.828;4.416;2023-05-10T12:53:07;8.80;;;5.03;;
19879;SDS011;10102;50.828;4.416;2023-05-10T12:55:33;7.40;;;4.72;;
19879;SDS011;10102;50.828;4.416;2023-05-10T12:57:59;7.57;;;4.88;;
19879;SDS011;10102;50.828;4.416;2023-05-10T13:00:25;9.05;;;4.78;;
19879;SDS011;10102;50.828;4.416;2023-05-10T13:02:51;5.93;;;5.00;;
19879;SDS011;10102;50.828;4.416;2023-05-10T13:05:17;9.63;;;4.63;;
19879;SDS011;10102;50.828;4.416;2023-05-10T13:07:42;7.53;;;4.55;;
19879;SDS011;10102;50.828;4.416;2023-05-10T13:10:09;6.32;;;4.07;;
19879;SDS011;10102;50.828;4.416;2023-05-10T13:12:35;5.50;;;3.90;;
19879;SDS011;10102;50.828;4.416;2023-05-10T13:15:01;7.28;;;4.57;;
19879;SDS011;10102;50.828;4.416;2023-05-10T13:17:28;5.75;;;4.57;;
19879;SDS011;10102;50.828;4.416;2023-05-10T13:19:54;6.63;;;4.88;;
19879;SDS011;10102;50.828;4.416;2023-05-10T13:22:20;5.15;;;4.13;;
19879;SDS011;10102;50.828;4.416;2023-05-10T13:24:45;7.57;;;4.10;;
19879;SDS011;10102;50.828;4.416;2023-05-10T13:27:11;5.10;;;3.55;;
19879;SDS011;10102;50.828;4.416;2023-05-10T13:29:37;2.83;;;2.50;;
19879;SDS011;10102;50.828;4.416;2023-05-10T13:32:02;6.45;;;2.90;;
19879;SDS011;10102;50.828;4.416;2023-05-10T13:34:28;3.50;;;2.60;;
19879;SDS011;10102;50.828;4.416;2023-05-10T13:36:54;4.72;;;3.15;;
19879;SDS011;10102;50.828;4.416;2023-05-10T13:39:21;6.00;;;2.85;;
19879;SDS011;10102;50.828;4.416;2023-05-10T13:41:47;3.92;;;3.22;;
19879;SDS011;10102;50.828;4.416;2023-05-10T13:44:13;5.82;;;2.83;;
19879;SDS011;10102;50.828;4.416;2023-05-10T13:46:39;7.43;;;4.22;;
19879;SDS011;10102;50.828;4.416;2023-05-10T13:49:06;6.43;;;4.03;;
19879;SDS011;10102;50.828;4.416;2023-05-10T13:51:33;10.65;;;5.03;;
19879;SDS011;10102;50.828;4.416;2023-05-10T13:53:59;11.57;;;4.88;;
19879;SDS011;10102;50.828;4.416;2023-05-10T13:56:24;10.27;;;5.05;;
19879;SDS011;10102;50.828;4.416;2023-05-10T13:58:50;6.30;;;4.68;;
19879;SDS011;10102;50.828;4.416;2023-05-10T14:01:16;6.45;;;4.28;;
19879;SDS011;10102;50.828;4.416;2023-05-10T14:03:42;6.15;;;4.20;;
19879;SDS011;10102;50.828;4.416;2023-05-10T14:06:07;7.20;;;4.80;;
19879;SDS011;10102;50.828;4.416;2023-05-10T14:08:33;9.02;;;5.00;;
19879;SDS011;10102;50.828;4.416;2023-05-10T14:11:00;10.63;;;5.60;;
19879;SDS011;10102;50.828;4.416;2023-05-10T14:13:26;6.45;;;5.30;;
19879;SDS011;10102;50.828;4.416;2023-05-10T14:15:52;9.50;;;6.72;;
19879;SDS011;10102;50.828;4.416;2023-05-10T14:18:19;9.50;;;5.95;;
19879;SDS011;10102;50.828;4.416;2023-05-10T14:20:44;10.93;;;6.20;;
19879;SDS011;10102;50.828;4.416;2023-05-10T14:23:10;10.30;;;6.75;;
19879;SDS011;10102;50.828;4.416;2023-05-10T14:25:36;11.40;;;6.57;;
19879;SDS011;10102;50.828;4.416;2023-05-10T14:28:03;9.38;;;6.63;;
19879;SDS011;10102;50.828;4.416;2023-05-10T14:30:28;13.40;;;7.43;;
19879;SDS011;10102;50.828;4.416;2023-05-10T14:32:54;11.90;;;7.65;;
19879;SDS011;10102;50.828;4.416;2023-05-10T14:35:20;13.02;;;7.50;;
19879;SDS011;10102;50.828;4.416;2023-05-10T14:37:46;14.32;;;9.18;;
19879;SDS011;10102;50.828;4.416;2023-05-10T14:40:12;13.38;;;9.05;;
19879;SDS011;10102;50.828;4.416;2023-05-10T14:42:37;17.45;;;9.23;;
19879;SDS011;10102;50.828;4.416;2023-05-10T14:45:03;11.65;;;8.10;;
19879;SDS011;10102;50.828;4.416;2023-05-10T14:47:29;12.32;;;8.13;;
19879;SDS011;10102;50.828;4.416;2023-05-10T14:49:55;11.00;;;7.70;;
19879;SDS011;10102;50.828;4.416;2023-05-10T14:52:21;15.52;;;8.77;;
19879;SDS011;10102;50.828;4.416;2023-05-10T14:54:47;11.23;;;7.80;;
19879;SDS011;10102;50.828;4.416;2023-05-10T14:57:12;15.20;;;8.23;;
19879;SDS011;10102;50.828;4.416;2023-05-10T14:59:38;12.35;;;8.65;;
19879;SDS011;10102;50.828;4.416;2023-05-10T15:02:04;16.00;;;9.02;;
19879;SDS011;10102;50.828;4.416;2023-05-10T15:04:29;16.50;;;10.07;;
19879;SDS011;10102;50.828;4.416;2023-05-10T15:06:55;13.32;;;9.25;;
19879;SDS011;10102;50.828;4.416;2023-05-10T15:09:24;13.20;;;8.85;;
19879;SDS011;10102;50.828;4.416;2023-05-10T15:11:50;15.57;;;8.68;;
19879;SDS011;10102;50.828;4.416;2023-05-10T15:14:16;19.15;;;8.65;;
19879;SDS011;10102;50.828;4.416;2023-05-10T15:16:41;14.13;;;8.38;;
19879;SDS011;10102;50.828;4.416;2023-05-10T15:19:07;16.05;;;8.25;;
19879;SDS011;10102;50.828;4.416;2023-05-10T15:21:33;15.88;;;7.32;;
19879;SDS011;10102;50.828;4.416;2023-05-10T15:24:04;12.82;;;6.97;;
19879;SDS011;10102;50.828;4.416;2023-05-10T15:26:30;14.88;;;7.30;;
19879;SDS011;10102;50.828;4.416;2023-05-10T15:28:56;13.35;;;5.80;;
19879;SDS011;10102;50.828;4.416;2023-05-10T15:31:21;11.48;;;5.78;;